Terminal Aerodrome Forecast
Issued by NWS

Home | Current Version | Previous Version | Text Only | Print | Product List | Glossary On
Versions: 1 2 3 4 5 6 7 8 9 10 11 12 13 14 15 16
000
FTUS44 KLZK 241700
TAFPBF
TAF
KPBF 241720Z 2418/2518 20014G25KT P6SM VCTS BKN050CB
      TEMPO 2418/2421 5SM -TSRA BR
     FM242100 23015G28KT P6SM VCTS BKN035CB
      TEMPO 2421/2501 4SM TSRA BR BKN020CB
     FM250300 29012G20KT P6SM SCT040
     FM250700 VRB04KT P6SM SKC=

USA.gov is the U.S. government's official web portal to all federal, state and local government web resources and services.